createdAt,value
2019-05-10T00:01:44.891Z,11.70
2019-05-10T00:04:39.123Z,11.70
2019-05-10T00:07:28.445Z,11.70
2019-05-10T00:10:02.194Z,11.70
2019-05-10T00:12:47.477Z,11.70
2019-05-10T00:15:21.285Z,11.70
2019-05-10T00:17:55.753Z,11.70
2019-05-10T00:20:31.608Z,11.70
2019-05-10T00:23:08.179Z,11.70
2019-05-10T00:25:42.246Z,11.70
2019-05-10T00:28:16.510Z,11.70
2019-05-10T00:30:51.400Z,11.80
2019-05-10T00:33:23.153Z,11.80
2019-05-10T00:35:57.519Z,11.80
2019-05-10T00:38:36.490Z,11.80
2019-05-10T00:41:12.381Z,11.70
2019-05-10T00:43:51.869Z,11.70
2019-05-10T00:46:29.339Z,11.80
2019-05-10T00:49:03.855Z,11.80
2019-05-10T00:51:42.270Z,11.80
2019-05-10T00:54:13.882Z,11.80
2019-05-10T00:56:48.937Z,11.70
2019-05-10T00:59:20.267Z,11.80
2019-05-10T01:01:54.351Z,11.70
2019-05-10T01:04:27.725Z,11.70
2019-05-10T01:07:00.806Z,11.70
2019-05-10T01:09:36.929Z,11.70
2019-05-10T01:12:10.105Z,11.70
2019-05-10T01:14:45.960Z,11.60
2019-05-10T01:17:21.449Z,11.60
2019-05-10T01:19:54.867Z,11.60
2019-05-10T01:22:27.945Z,11.50
2019-05-10T01:25:01.903Z,11.60
2019-05-10T01:27:31.977Z,11.60
2019-05-10T01:30:07.637Z,11.60
2019-05-10T01:32:43.414Z,11.60
2019-05-10T01:35:15.235Z,11.50
2019-05-10T01:37:51.193Z,11.50
2019-05-10T01:40:24.042Z,11.50
2019-05-10T01:43:05.080Z,11.50
2019-05-10T01:45:35.238Z,11.50
2019-05-10T01:48:10.879Z,11.40
2019-05-10T01:50:47.547Z,11.40
2019-05-10T01:53:24.778Z,11.40
2019-05-10T01:56:00.432Z,11.40
2019-05-10T01:58:34.954Z,11.40
2019-05-10T02:01:08.453Z,11.40
2019-05-10T02:03:45.504Z,11.40
2019-05-10T02:06:18.654Z,11.40
2019-05-10T02:08:58.782Z,11.40
2019-05-10T02:11:35.065Z,11.40
2019-05-10T02:14:09.998Z,11.40
2019-05-10T02:16:45.240Z,11.40
2019-05-10T02:19:24.822Z,11.30
2019-05-10T02:22:05.290Z,11.30
2019-05-10T02:24:46.016Z,11.30
2019-05-10T02:27:26.476Z,11.20
2019-05-10T02:30:05.242Z,11.20
2019-05-10T02:32:42.692Z,11.20
2019-05-10T02:35:24.835Z,11.10
2019-05-10T02:38:04.436Z,11.10
2019-05-10T02:40:47.412Z,11.00
2019-05-10T02:43:28.444Z,11.00
2019-05-10T02:46:03.982Z,11.00
2019-05-10T02:48:35.740Z,11.00
2019-05-10T02:51:10.268Z,10.90
2019-05-10T02:53:45.222Z,10.80
2019-05-10T02:56:29.212Z,10.90
2019-05-10T02:58:48.821Z,10.90
2019-05-10T03:01:23.598Z,10.90
2019-05-10T03:03:54.538Z,10.80
2019-05-10T03:06:28.445Z,10.80
2019-05-10T03:09:04.203Z,10.70
2019-05-10T03:11:49.621Z,10.70
2019-05-10T03:14:21.337Z,10.70
2019-05-10T03:16:52.125Z,10.60
2019-05-10T03:19:24.277Z,10.60
2019-05-10T03:22:10.198Z,10.60
2019-05-10T03:24:42.757Z,10.50
2019-05-10T03:27:13.745Z,10.50
2019-05-10T03:29:45.453Z,10.60
2019-05-10T03:32:17.141Z,10.50
2019-05-10T03:34:47.604Z,10.50
2019-05-10T03:37:19.921Z,10.50
2019-05-10T03:39:53.256Z,10.50
2019-05-10T03:42:26.603Z,10.50
2019-05-10T03:44:56.927Z,10.50
2019-05-10T03:47:30.119Z,10.50
2019-05-10T03:50:00.343Z,10.60
2019-05-10T03:52:33.596Z,10.60
2019-05-10T03:55:09.550Z,10.60
2019-05-10T03:57:44.045Z,10.60
2019-05-10T04:00:16.412Z,10.60
2019-05-10T04:02:49.479Z,10.60
2019-05-10T04:05:22.692Z,10.60
2019-05-10T04:07:55.457Z,10.60
2019-05-10T04:10:28.750Z,10.60
2019-05-10T04:12:58.977Z,10.70
2019-05-10T04:15:32.447Z,10.70
2019-05-10T04:18:10.337Z,10.70
2019-05-10T04:20:48.632Z,10.70
2019-05-10T04:23:24.764Z,10.80
2019-05-10T04:25:59.870Z,10.70
2019-05-10T04:28:31.483Z,10.80
2019-05-10T04:31:03.762Z,10.80
2019-05-10T04:33:40.485Z,10.80
2019-05-10T04:36:16.490Z,10.80
2019-05-10T04:38:48.403Z,10.90
2019-05-10T04:41:21.748Z,10.90
2019-05-10T04:43:53.559Z,10.90
2019-05-10T04:46:28.332Z,11.00
2019-05-10T04:49:11.439Z,11.10
2019-05-10T04:51:33.692Z,11.00
2019-05-10T04:54:09.584Z,11.10
2019-05-10T04:56:43.285Z,11.10
2019-05-10T04:59:16.649Z,11.20
2019-05-10T05:01:49.725Z,11.20
2019-05-10T05:04:23.322Z,11.30
2019-05-10T05:06:55.550Z,11.30
2019-05-10T05:09:42.289Z,11.40
2019-05-10T05:12:03.652Z,11.40
2019-05-10T05:14:38.943Z,11.40
2019-05-10T05:17:12.731Z,11.50
2019-05-10T05:19:44.713Z,11.50
2019-05-10T05:22:15.247Z,11.60
2019-05-10T05:24:55.070Z,11.60
2019-05-10T05:27:35.348Z,11.60
2019-05-10T05:30:07.146Z,11.60
2019-05-10T05:32:44.618Z,11.70
2019-05-10T05:35:20.699Z,11.70
2019-05-10T05:37:50.267Z,11.80
2019-05-10T05:40:23.410Z,11.80
2019-05-10T05:43:02.760Z,11.90
2019-05-10T05:45:35.670Z,11.90
2019-05-10T05:48:16.115Z,12.00
2019-05-10T05:50:51.687Z,12.00
2019-05-10T05:53:28.464Z,12.10
2019-05-10T05:56:12.188Z,12.10
2019-05-10T05:58:47.089Z,12.20
2019-05-10T06:01:29.380Z,12.20
2019-05-10T06:04:12.518Z,12.20
2019-05-10T06:06:42.827Z,12.30
2019-05-10T06:09:17.722Z,12.40
2019-05-10T06:11:52.656Z,12.50
2019-05-10T06:14:34.689Z,12.40
2019-05-10T06:17:06.306Z,12.20
2019-05-10T06:19:44.694Z,12.20
2019-05-10T06:22:26.285Z,12.20
2019-05-10T06:25:03.603Z,12.70
2019-05-10T06:27:43.169Z,13.40
2019-05-10T06:30:15.924Z,13.80
2019-05-10T06:33:00.976Z,14.40
2019-05-10T06:35:30.917Z,15.10
2019-05-10T06:38:05.634Z,15.60
2019-05-10T06:40:47.514Z,15.50
2019-05-10T06:43:24.000Z,15.40
2019-05-10T06:46:00.163Z,15.20
2019-05-10T06:48:37.451Z,15.00
2019-05-10T06:51:12.937Z,14.90
2019-05-10T06:53:52.515Z,15.00
2019-05-10T06:56:30.360Z,15.10
2019-05-10T06:59:13.472Z,15.00
2019-05-10T07:01:51.698Z,15.00
2019-05-10T07:04:24.861Z,15.20
2019-05-10T07:07:02.651Z,15.50
2019-05-10T07:10:01.692Z,15.60
2019-05-10T07:12:23.604Z,15.70
2019-05-10T07:14:57.775Z,15.80
2019-05-10T07:17:41.435Z,15.70
2019-05-10T07:20:10.433Z,16.00
2019-05-10T07:22:48.278Z,16.20
2019-05-10T07:25:24.393Z,16.60
2019-05-10T07:28:03.671Z,16.60
2019-05-10T07:30:52.970Z,16.70
2019-05-10T07:33:27.522Z,15.90
2019-05-10T07:36:13.522Z,15.60
2019-05-10T07:38:40.664Z,15.50
2019-05-10T07:41:19.573Z,15.60
2019-05-10T07:44:00.268Z,15.20
2019-05-10T07:46:27.510Z,15.80
2019-05-10T07:49:04.123Z,16.30
2019-05-10T07:51:38.097Z,16.20
2019-05-10T07:54:13.639Z,16.30
2019-05-10T07:56:54.604Z,16.30
2019-05-10T07:59:42.007Z,16.10
2019-05-10T08:02:13.087Z,15.90
2019-05-10T08:04:45.452Z,15.80
2019-05-10T08:07:24.276Z,15.80
2019-05-10T08:10:04.721Z,15.70
2019-05-10T08:12:41.419Z,15.70
2019-05-10T08:15:16.243Z,15.60
2019-05-10T08:17:54.250Z,15.50
2019-05-10T08:20:46.372Z,15.40
2019-05-10T08:23:17.960Z,15.40
2019-05-10T08:25:54.449Z,15.30
2019-05-10T08:28:36.479Z,15.10
2019-05-10T08:31:07.231Z,15.10
2019-05-10T08:33:44.214Z,14.90
2019-05-10T08:36:21.782Z,14.90
2019-05-10T08:39:05.061Z,14.90
2019-05-10T08:41:32.488Z,15.10
2019-05-10T08:44:04.950Z,15.40
2019-05-10T08:46:44.427Z,15.60
2019-05-10T08:49:22.124Z,15.80
2019-05-10T08:51:52.375Z,16.10
2019-05-10T08:54:28.686Z,16.30
2019-05-10T09:00:02.210Z,16.50
2019-05-10T09:02:32.779Z,16.70
2019-05-10T09:05:12.504Z,16.90
2019-05-10T09:07:47.826Z,17.00
2019-05-10T09:10:28.092Z,17.10
2019-05-10T09:13:04.209Z,17.00
2019-05-10T09:15:51.198Z,17.20
2019-05-10T09:18:23.009Z,17.40
2019-05-10T09:21:08.233Z,17.30
2019-05-10T09:23:34.910Z,17.50
2019-05-10T09:26:15.281Z,17.80
2019-05-10T09:28:47.542Z,18.20
2019-05-10T09:31:21.553Z,18.50
2019-05-10T09:33:56.225Z,18.80
2019-05-10T09:36:33.475Z,18.90
2019-05-10T09:39:24.204Z,19.10
2019-05-10T09:41:45.897Z,19.10
2019-05-10T09:44:22.883Z,19.30
2019-05-10T09:47:03.994Z,19.60
2019-05-10T09:49:33.219Z,19.80
2019-05-10T09:52:14.980Z,19.90
2019-05-10T09:54:58.361Z,20.20
2019-05-10T09:57:38.047Z,20.10
2019-05-10T10:00:22.635Z,20.40
2019-05-10T10:03:07.938Z,20.80
2019-05-10T10:05:55.073Z,20.80
2019-05-10T10:08:31.368Z,20.80
2019-05-10T10:11:15.684Z,21.00
2019-05-10T10:14:02.190Z,21.40
2019-05-10T10:16:45.796Z,21.90
2019-05-10T10:19:24.274Z,21.90
2019-05-10T10:22:05.536Z,21.00
2019-05-10T10:24:38.650Z,21.20
2019-05-10T10:27:13.742Z,22.00
2019-05-10T10:29:40.688Z,22.80
2019-05-10T10:32:11.218Z,23.20
2019-05-10T10:34:44.512Z,24.60
2019-05-10T10:37:19.402Z,25.70
2019-05-10T10:39:54.521Z,26.20
2019-05-10T10:42:26.483Z,26.70
2019-05-10T10:44:57.587Z,27.50
2019-05-10T10:47:32.179Z,27.40
2019-05-10T10:50:13.174Z,26.80
2019-05-10T10:52:40.173Z,25.50
2019-05-10T10:55:13.300Z,24.50
2019-05-10T10:57:43.241Z,24.30
2019-05-10T11:00:23.785Z,23.90
2019-05-10T11:02:58.472Z,22.60
2019-05-10T11:05:31.621Z,21.40
2019-05-10T11:08:04.714Z,21.30
2019-05-10T11:10:34.936Z,23.10
2019-05-10T11:13:13.991Z,25.20
2019-05-10T11:15:44.526Z,26.40
2019-05-10T11:18:31.834Z,27.40
2019-05-10T11:21:07.631Z,28.10
2019-05-10T11:23:49.064Z,28.50
2019-05-10T11:26:26.869Z,29.00
2019-05-10T11:28:56.977Z,29.90
2019-05-10T11:31:33.241Z,29.80
2019-05-10T11:34:10.677Z,30.00
2019-05-10T11:36:46.100Z,29.80
2019-05-10T11:39:25.969Z,30.60
2019-05-10T11:42:00.969Z,29.90
2019-05-10T11:44:28.215Z,28.40
2019-05-10T11:47:01.717Z,27.10
2019-05-10T11:49:37.877Z,27.30
2019-05-10T11:52:12.371Z,28.10
2019-05-10T11:54:46.408Z,27.90
2019-05-10T11:57:27.226Z,27.80
2019-05-10T12:00:04.453Z,27.10
2019-05-10T12:02:42.509Z,26.50
2019-05-10T12:05:17.643Z,24.70
2019-05-10T12:07:46.152Z,23.10
2019-05-10T12:10:24.834Z,22.10
2019-05-10T12:13:10.911Z,22.30
2019-05-10T12:15:42.969Z,24.10
2019-05-10T12:18:26.767Z,25.40
2019-05-10T12:21:08.976Z,26.30
2019-05-10T12:23:31.494Z,27.80
2019-05-10T12:28:43.264Z,28.00
2019-05-10T12:31:16.963Z,26.20
2019-05-10T12:33:51.908Z,26.00
2019-05-10T12:36:31.428Z,27.10
2019-05-10T12:39:01.977Z,28.00
2019-05-10T12:41:39.957Z,28.50
2019-05-10T12:44:12.462Z,27.50
2019-05-10T12:46:45.753Z,27.30
2019-05-10T12:49:36.304Z,28.30
2019-05-10T12:51:55.590Z,28.40
2019-05-10T12:54:28.533Z,28.50
2019-05-10T12:57:02.309Z,28.50
2019-05-10T12:59:34.956Z,27.80
2019-05-10T13:02:13.194Z,26.70
2019-05-10T13:04:51.950Z,24.60
2019-05-10T13:07:18.048Z,23.00
2019-05-10T13:09:50.438Z,21.60
2019-05-10T13:12:30.025Z,21.20
2019-05-10T13:15:04.451Z,21.30
2019-05-10T13:17:43.934Z,21.20
2019-05-10T13:20:12.333Z,20.90
2019-05-10T13:22:52.791Z,20.30
2019-05-10T13:25:32.204Z,20.20
2019-05-10T13:28:11.154Z,19.90
2019-05-10T13:30:33.530Z,19.40
2019-05-10T13:33:07.172Z,18.90
2019-05-10T13:35:39.135Z,18.60
2019-05-10T13:38:13.248Z,18.30
2019-05-10T13:40:45.568Z,18.30
2019-05-10T13:43:26.659Z,18.20
2019-05-10T13:45:54.260Z,18.30
2019-05-10T13:48:38.409Z,18.00
2019-05-10T13:51:08.540Z,18.20
2019-05-10T13:53:46.641Z,18.20
2019-05-10T13:56:17.575Z,18.30
2019-05-10T13:58:51.280Z,18.40
2019-05-10T14:01:23.530Z,18.70
2019-05-10T14:04:00.811Z,19.20
2019-05-10T14:06:30.421Z,19.20
2019-05-10T14:09:04.860Z,19.50
2019-05-10T14:11:46.676Z,19.70
2019-05-10T14:14:20.474Z,19.70
2019-05-10T14:16:52.112Z,19.80
2019-05-10T14:19:26.096Z,19.90
2019-05-10T14:22:06.893Z,20.00
2019-05-10T14:24:36.491Z,19.60
2019-05-10T14:27:29.908Z,19.80
2019-05-10T14:29:59.153Z,20.00
2019-05-10T14:32:30.956Z,20.30
2019-05-10T14:35:05.050Z,20.30
2019-05-10T14:37:36.604Z,20.20
2019-05-10T14:40:16.655Z,20.20
2019-05-10T14:42:47.411Z,20.30
2019-05-10T14:45:18.638Z,20.50
2019-05-10T14:47:59.029Z,20.80
2019-05-10T14:50:33.788Z,20.90
2019-05-10T14:53:06.509Z,20.50
2019-05-10T14:55:40.929Z,20.30
2019-05-10T14:58:14.179Z,20.30
2019-05-10T15:00:53.715Z,20.30
2019-05-10T15:03:26.753Z,20.10
2019-05-10T15:06:03.238Z,19.80
2019-05-10T15:08:36.314Z,19.60
2019-05-10T15:11:14.520Z,19.40
2019-05-10T15:13:50.990Z,19.20
2019-05-10T15:16:31.071Z,19.10
2019-05-10T15:18:59.626Z,19.00
2019-05-10T15:21:34.681Z,19.10
2019-05-10T15:24:11.247Z,19.00
2019-05-10T15:26:46.150Z,18.90
2019-05-10T15:29:24.630Z,18.90
2019-05-10T15:32:07.473Z,18.90
2019-05-10T15:34:39.363Z,18.80
2019-05-10T15:37:22.182Z,18.80
2019-05-10T15:40:00.489Z,18.80
2019-05-10T15:42:38.366Z,18.60
2019-05-10T15:45:14.715Z,18.40
2019-05-10T15:47:57.592Z,18.20
2019-05-10T15:50:32.483Z,18.10
2019-05-10T15:53:00.286Z,18.00
2019-05-10T15:55:35.957Z,17.80
2019-05-10T15:58:10.889Z,17.70
2019-05-10T16:00:43.949Z,17.60
2019-05-10T16:03:17.252Z,17.60
2019-05-10T16:06:00.501Z,17.40
2019-05-10T16:08:31.973Z,17.50
2019-05-10T16:11:03.830Z,17.50
2019-05-10T16:13:35.572Z,17.50
2019-05-10T16:16:09.961Z,17.50
2019-05-10T16:18:43.289Z,17.50
2019-05-10T16:21:16.874Z,17.50
2019-05-10T16:23:53.114Z,17.50
2019-05-10T16:26:29.600Z,17.40
2019-05-10T16:29:21.736Z,17.40
2019-05-10T16:31:52.118Z,17.50
2019-05-10T16:34:32.199Z,17.40
2019-05-10T16:37:06.195Z,17.40
2019-05-10T16:39:41.534Z,17.30
2019-05-10T16:42:20.972Z,17.10
2019-05-10T16:44:55.802Z,17.10
2019-05-10T16:47:26.155Z,16.90
2019-05-10T16:50:05.148Z,16.90
2019-05-10T16:52:37.353Z,16.90
2019-05-10T16:58:15.347Z,16.80
2019-05-10T17:00:54.265Z,16.60
2019-05-10T17:03:40.089Z,16.50
2019-05-10T17:06:16.412Z,16.50
2019-05-10T17:09:02.009Z,16.50
2019-05-10T17:11:46.730Z,16.40
2019-05-10T17:14:19.669Z,16.40
2019-05-10T17:17:00.120Z,16.40
2019-05-10T17:19:37.850Z,16.30
2019-05-10T17:22:18.967Z,16.30
2019-05-10T17:24:56.759Z,16.20
2019-05-10T17:27:25.516Z,16.20
2019-05-10T17:30:06.627Z,16.10
2019-05-10T17:32:33.469Z,16.00
2019-05-10T17:35:11.737Z,16.10
2019-05-10T17:37:43.712Z,16.10
2019-05-10T17:40:18.922Z,16.00
2019-05-10T17:42:52.372Z,16.10
2019-05-10T17:45:26.821Z,16.00
2019-05-10T17:47:58.535Z,16.10
2019-05-10T17:50:40.936Z,16.00
2019-05-10T17:53:08.902Z,15.90
2019-05-10T17:55:41.791Z,15.90
2019-05-10T17:58:21.276Z,15.70
2019-05-10T18:00:57.494Z,15.70
2019-05-10T18:03:43.210Z,15.60
2019-05-10T18:06:24.106Z,15.70
2019-05-10T18:08:58.642Z,15.80
2019-05-10T18:11:36.759Z,15.70
2019-05-10T18:14:12.568Z,15.60
2019-05-10T18:16:57.084Z,15.50
2019-05-10T18:19:19.165Z,15.50
2019-05-10T18:22:05.554Z,15.40
2019-05-10T18:24:44.185Z,15.40
2019-05-10T18:27:21.870Z,15.30
2019-05-10T18:29:56.445Z,15.10
2019-05-10T18:32:38.784Z,15.10
2019-05-10T18:35:14.791Z,15.00
2019-05-10T18:37:45.238Z,15.00
2019-05-10T18:40:18.963Z,14.90
2019-05-10T18:42:57.983Z,14.80
2019-05-10T18:45:30.118Z,14.80
2019-05-10T18:48:06.195Z,14.70
2019-05-10T18:50:47.240Z,14.60
2019-05-10T18:53:26.868Z,14.60
2019-05-10T18:56:08.560Z,14.50
2019-05-10T18:58:49.133Z,14.40
2019-05-10T19:01:27.183Z,14.30
2019-05-10T19:04:00.862Z,14.20
2019-05-10T19:06:36.848Z,14.20
2019-05-10T19:09:07.424Z,14.20
2019-05-10T19:11:40.873Z,14.00
2019-05-10T19:14:16.935Z,14.00
2019-05-10T19:16:50.124Z,13.90
2019-05-10T19:19:26.798Z,13.90
2019-05-10T19:22:03.168Z,13.90
2019-05-10T19:24:32.085Z,13.90
2019-05-10T19:27:19.072Z,13.90
2019-05-10T19:29:56.310Z,14.00
2019-05-10T19:32:33.614Z,14.00
2019-05-10T19:35:05.810Z,13.90
2019-05-10T19:37:44.109Z,13.90
2019-05-10T19:40:17.987Z,13.90
2019-05-10T19:42:53.607Z,13.90
2019-05-10T19:45:31.295Z,13.90
2019-05-10T19:48:00.232Z,13.90
2019-05-10T19:50:31.213Z,13.90
2019-05-10T19:53:03.891Z,13.80
2019-05-10T19:55:33.275Z,13.80
2019-05-10T19:58:09.224Z,13.80
2019-05-10T20:00:39.156Z,13.80
2019-05-10T20:03:09.106Z,13.90
2019-05-10T20:05:39.059Z,13.80
2019-05-10T20:08:09.012Z,13.80
2019-05-10T20:10:46.954Z,13.80
2019-05-10T20:13:17.020Z,13.70
2019-05-10T20:15:46.955Z,13.60
2019-05-10T20:18:16.877Z,13.50
2019-05-10T20:20:46.854Z,13.40
2019-05-10T20:23:17.400Z,13.40
2019-05-10T20:25:48.330Z,13.40
2019-05-10T20:28:18.642Z,13.30
2019-05-10T20:30:48.564Z,13.30
2019-05-10T20:33:18.593Z,13.20
2019-05-10T20:35:48.814Z,13.20
2019-05-10T20:38:18.828Z,13.10
2019-05-10T20:40:48.774Z,13.00
2019-05-10T20:43:18.695Z,13.10
2019-05-10T20:45:48.745Z,13.10
2019-05-10T20:48:18.944Z,13.10
2019-05-10T20:50:50.129Z,13.00
2019-05-10T20:53:20.041Z,12.90
2019-05-10T20:55:49.965Z,12.90
2019-05-10T20:58:19.884Z,12.80
2019-05-10T21:00:49.826Z,12.70
2019-05-10T21:03:20.889Z,12.70
2019-05-10T21:05:50.860Z,12.70
2019-05-10T21:08:20.795Z,12.70
2019-05-10T21:10:50.760Z,12.70
2019-05-10T21:13:20.724Z,12.80
2019-05-10T21:15:50.667Z,12.80
2019-05-10T21:18:22.192Z,12.80
2019-05-10T21:20:52.106Z,12.90
2019-05-10T21:23:23.541Z,12.90
2019-05-10T21:25:53.465Z,12.90
2019-05-10T21:28:23.434Z,12.90
2019-05-10T21:30:53.812Z,12.90
2019-05-10T21:33:23.856Z,12.90
2019-05-10T21:35:53.847Z,12.90
2019-05-10T21:38:32.717Z,12.90
2019-05-10T21:40:55.530Z,13.00
2019-05-10T21:43:25.523Z,13.10
2019-05-10T21:45:57.092Z,13.10
2019-05-10T21:48:27.162Z,13.20
2019-05-10T21:50:57.447Z,13.10
2019-05-10T21:53:27.559Z,13.00
2019-05-10T21:55:57.518Z,13.00
2019-05-10T21:58:35.913Z,13.00
2019-05-10T22:01:06.175Z,13.00
2019-05-10T22:03:38.891Z,12.90
2019-05-10T22:06:08.857Z,12.90
2019-05-10T22:08:48.885Z,13.00
2019-05-10T22:11:10.493Z,12.90
2019-05-10T22:13:40.578Z,12.90
2019-05-10T22:16:10.716Z,12.90
2019-05-10T22:18:41.609Z,13.00
2019-05-10T22:21:11.627Z,13.00
2019-05-10T22:23:41.764Z,13.10
2019-05-10T22:26:11.896Z,13.10
2019-05-10T22:28:41.927Z,13.10
2019-05-10T22:31:11.980Z,13.10
2019-05-10T22:33:42.063Z,13.00
2019-05-10T22:36:12.070Z,13.00
2019-05-10T22:38:44.003Z,12.90
2019-05-10T22:41:14.018Z,13.00
2019-05-10T22:43:44.238Z,13.00
2019-05-10T22:46:14.232Z,13.10
2019-05-10T22:48:44.244Z,13.10
2019-05-10T22:51:14.318Z,13.10
2019-05-10T22:53:44.330Z,13.10
2019-05-10T22:56:14.323Z,13.10
2019-05-10T22:58:44.318Z,13.00
2019-05-10T23:01:14.340Z,13.00
2019-05-10T23:03:44.403Z,12.90
2019-05-10T23:06:14.392Z,12.90
2019-05-10T23:08:44.382Z,12.70
2019-05-10T23:11:14.423Z,12.70
2019-05-10T23:13:44.470Z,12.70
2019-05-10T23:16:16.235Z,12.70
2019-05-10T23:18:46.240Z,12.70
2019-05-10T23:21:16.323Z,12.60
2019-05-10T23:23:46.324Z,12.60
2019-05-10T23:26:16.367Z,12.50
2019-05-10T23:28:46.518Z,12.50
2019-05-10T23:31:16.536Z,12.40
2019-05-10T23:33:46.551Z,12.40
2019-05-10T23:36:16.501Z,12.40
2019-05-10T23:38:52.166Z,12.30
2019-05-10T23:41:18.246Z,12.20
2019-05-10T23:43:48.285Z,12.20
2019-05-10T23:46:18.381Z,12.10
2019-05-10T23:48:48.601Z,12.00
2019-05-10T23:51:18.695Z,12.00
2019-05-10T23:53:48.688Z,11.80
2019-05-10T23:56:18.706Z,11.80
2019-05-10T23:58:48.704Z,11.80
